Time;durP1;ratioP1;P1;durP2;ratioP2;P2;SDS_P1;SDS_P2;PMS_P1;PMS_P2;Temp;Humidity;BMP_temperature;BMP_pressure;BME280_temperature;BME280_humidity;BME280_pressure;Samples;Min_cycle;Max_cycle;Signal;HPM_P1;HPM_P2
2021/10/22 00:01:24;;;;;;;7.20;1.55;;;;;;;7.14;100.00;100120.22;5291052;28;20024;-80
2021/10/22 00:03:54;;;;;;;7.13;1.58;;;;;;;7.15;100.00;100110.72;5291613;28;20039;-80
2021/10/22 00:06:25;;;;;;;6.15;1.23;;;;;;;7.18;100.00;100127.06;5273074;28;20027;-79
2021/10/22 00:08:55;;;;;;;5.65;1.17;;;;;;;7.20;100.00;100124.41;5292088;28;20023;-81
2021/10/22 00:11:26;;;;;;;7.03;1.02;;;;;;;7.10;100.00;100131.63;5272942;28;20053;-81
2021/10/22 00:13:57;;;;;;;6.47;1.50;;;;;;;7.15;100.00;100127.16;5282217;28;20027;-81
2021/10/22 00:16:27;;;;;;;6.15;1.25;;;;;;;7.21;100.00;100136.50;5273207;28;20055;-79
2021/10/22 00:18:57;;;;;;;5.28;1.27;;;;;;;7.08;100.00;100140.38;5274487;28;20050;-81
2021/10/22 00:21:28;;;;;;;7.80;1.27;;;;;;;7.05;100.00;100135.25;5273225;28;20027;-80
2021/10/22 00:23:58;;;;;;;8.60;1.13;;;;;;;7.15;100.00;100140.16;5290361;28;20031;-80
2021/10/22 00:26:30;;;;;;;6.32;0.80;;;;;;;7.11;100.00;100142.88;5281429;28;20114;-79
2021/10/22 00:29:01;;;;;;;3.47;0.77;;;;;;;7.09;100.00;100153.31;5272876;28;20075;-79
2021/10/22 00:31:32;;;;;;;7.40;1.38;;;;;;;7.05;100.00;100156.03;5272807;28;20483;-80
2021/10/22 00:34:02;;;;;;;6.25;1.08;;;;;;;7.15;100.00;100157.47;5272818;28;20414;-80
2021/10/22 00:36:33;;;;;;;7.22;1.42;;;;;;;7.13;100.00;100164.47;5269885;28;20031;-79
2021/10/22 00:39:04;;;;;;;8.48;1.23;;;;;;;7.11;100.00;100166.25;5271168;28;20155;-80
2021/10/22 00:41:36;;;;;;;5.53;1.20;;;;;;;7.07;100.00;100170.69;5291124;28;20024;-80
2021/10/22 00:44:06;;;;;;;5.90;1.00;;;;;;;7.07;100.00;100169.84;5283151;28;20023;-81
2021/10/22 00:46:39;;;;;;;6.03;1.13;;;;;;;7.09;100.00;100165.47;5285677;28;20203;-78
2021/10/22 00:49:11;;;;;;;3.42;0.93;;;;;;;7.01;100.00;100163.06;5272990;28;20039;-81
2021/10/22 00:51:42;;;;;;;4.95;0.93;;;;;;;7.08;100.00;100174.16;5290084;28;20024;-80
2021/10/22 00:54:13;;;;;;;7.65;1.30;;;;;;;7.09;100.00;100165.47;5290626;28;20123;-80
2021/10/22 00:56:44;;;;;;;5.18;0.90;;;;;;;7.12;100.00;100168.78;5271758;28;20106;-79
2021/10/22 00:59:15;;;;;;;6.93;1.02;;;;;;;7.11;100.00;100177.47;5272588;28;20110;-80
2021/10/22 01:01:45;;;;;;;7.10;0.93;;;;;;;7.08;100.00;100172.38;5290883;28;20027;-81
2021/10/22 01:04:16;;;;;;;7.40;0.75;;;;;;;7.09;100.00;100173.25;5289355;27;20023;-81
2021/10/22 01:06:46;;;;;;;5.15;1.20;;;;;;;7.09;100.00;100173.25;5271864;28;20041;-80
2021/10/22 01:09:16;;;;;;;6.85;1.42;;;;;;;6.92;100.00;100176.28;5272332;28;20064;-80
2021/10/22 01:11:48;;;;;;;6.65;1.30;;;;;;;7.00;100.00;100163.97;5271163;28;20521;-79
2021/10/22 01:14:18;;;;;;;4.60;1.00;;;;;;;6.90;100.00;100161.66;5280268;28;20016;-81
2021/10/22 01:16:49;;;;;;;6.68;1.10;;;;;;;6.92;100.00;100167.66;5267155;28;20031;-81
2021/10/22 01:19:19;;;;;;;6.68;1.30;;;;;;;6.93;100.00;100169.38;5272543;28;20092;-79
2021/10/22 01:21:49;;;;;;;9.20;1.23;;;;;;;7.09;100.00;100166.28;5290684;28;20047;-79
2021/10/22 01:24:20;;;;;;;5.43;1.20;;;;;;;6.96;100.00;100167.50;5272039;28;20020;-79
2021/10/22 01:26:50;;;;;;;7.32;1.30;;;;;;;6.94;100.00;100168.47;5290198;28;20058;-79
2021/10/22 01:29:22;;;;;;;9.60;1.30;;;;;;;6.85;100.00;100166.13;5272317;28;20392;-81
2021/10/22 01:31:52;;;;;;;9.90;1.50;;;;;;;6.91;100.00;100176.34;5272664;28;20035;-80
2021/10/22 01:34:22;;;;;;;7.18;1.20;;;;;;;6.98;100.00;100170.09;5271777;28;20258;-80
2021/10/22 01:36:52;;;;;;;8.02;1.50;;;;;;;6.98;100.00;100175.28;5271990;28;20534;-80
2021/10/22 01:39:23;;;;;;;5.93;1.27;;;;;;;7.00;100.00;100170.88;5271806;28;20445;-79
2021/10/22 01:41:53;;;;;;;5.60;1.33;;;;;;;6.90;100.00;100180.69;5290266;28;20054;-80
2021/10/22 01:44:24;;;;;;;10.82;1.40;;;;;;;7.05;100.00;100174.19;5271850;28;20073;-80
2021/10/22 01:46:55;;;;;;;6.70;1.70;;;;;;;7.09;100.00;100179.28;5280357;28;20027;-81
2021/10/22 01:49:25;;;;;;;7.97;1.20;;;;;;;7.03;100.00;100173.41;5271675;28;20324;-80
2021/10/22 01:51:55;;;;;;;7.07;1.40;;;;;;;7.01;100.00;100165.66;5289361;28;20422;-80
2021/10/22 01:54:27;;;;;;;12.30;1.95;;;;;;;6.95;100.00;100176.19;5280085;28;20106;-80
2021/10/22 01:56:57;;;;;;;5.75;0.90;;;;;;;6.98;100.00;100170.09;5271600;28;20556;-81
2021/10/22 01:59:28;;;;;;;7.57;1.40;;;;;;;7.02;100.00;100171.69;5272255;28;20103;-81
2021/10/22 02:01:58;;;;;;;9.45;1.10;;;;;;;7.09;100.00;100174.09;5272116;28;20023;-80
2021/10/22 02:04:29;;;;;;;6.93;1.10;;;;;;;7.12;100.00;100180.94;5289317;28;20547;-79
2021/10/22 02:06:59;;;;;;;3.28;0.90;;;;;;;7.21;100.00;100183.28;5280037;28;20019;-81
2021/10/22 02:09:30;;;;;;;7.05;0.98;;;;;;;7.06;100.00;100171.56;5289832;28;20034;-80
2021/10/22 02:12:00;;;;;;;4.70;1.00;;;;;;;7.06;100.00;100174.19;5289053;28;20103;-80
2021/10/22 02:14:31;;;;;;;5.97;0.98;;;;;;;6.96;100.00;100171.88;5288916;28;20111;-81
2021/10/22 02:17:02;;;;;;;10.80;1.30;;;;;;;7.17;100.00;100171.28;5280329;28;20023;-80
2021/10/22 02:19:32;;;;;;;7.50;1.10;;;;;;;7.06;100.00;100171.56;5289820;28;20054;-80
2021/10/22 02:22:03;;;;;;;8.05;1.30;;;;;;;7.02;100.00;100172.56;5291814;28;20016;-81
2021/10/22 02:24:33;;;;;;;5.47;1.23;;;;;;;7.13;100.00;100174.88;5270949;28;20455;-80
2021/10/22 02:27:03;;;;;;;5.05;1.20;;;;;;;7.07;100.00;100164.66;5270971;28;20034;-79
2021/10/22 02:29:34;;;;;;;4.05;1.02;;;;;;;6.97;100.00;100170.97;5279481;28;20337;-81
2021/10/22 02:32:04;;;;;;;5.13;1.10;;;;;;;7.08;100.00;100167.19;5291437;28;20536;-81
2021/10/22 02:34:35;;;;;;;5.28;1.35;;;;;;;7.12;100.00;100167.97;5270274;28;20028;-78
2021/10/22 02:37:05;;;;;;;4.47;1.15;;;;;;;7.03;100.00;100171.66;5271110;28;20023;-79
2021/10/22 02:39:36;;;;;;;5.15;0.90;;;;;;;7.03;100.00;100152.63;5288840;28;20032;-81
2021/10/22 02:42:07;;;;;;;4.07;1.00;;;;;;;6.99;100.00;100145.81;5271225;28;20019;-80
2021/10/22 02:44:37;;;;;;;7.70;1.58;;;;;;;6.94;100.00;100156.31;5279917;28;20038;-78
2021/10/22 02:47:08;;;;;;;8.13;1.17;;;;;;;6.94;100.00;100151.13;5271477;28;20031;-80
2021/10/22 02:49:38;;;;;;;5.70;1.10;;;;;;;6.92;100.00;100150.31;5273137;28;20023;-81
2021/10/22 02:52:08;;;;;;;5.35;0.98;;;;;;;6.87;100.00;100146.13;5294301;28;20023;-81
2021/10/22 02:54:39;;;;;;;6.90;1.20;;;;;;;6.96;100.00;100146.75;5278158;22;20485;-78
2021/10/22 02:57:09;;;;;;;7.13;1.02;;;;;;;6.91;100.00;100150.38;5252819;28;20029;-79
2021/10/22 02:59:39;;;;;;;7.03;1.17;;;;;;;6.92;100.00;100150.31;5253058;28;20029;-78
2021/10/22 03:02:10;;;;;;;8.15;1.10;;;;;;;6.95;100.00;100145.03;5251815;28;20024;-77
2021/10/22 03:04:40;;;;;;;7.07;1.45;;;;;;;6.89;100.00;100137.44;5237868;28;20024;-77
2021/10/22 03:07:10;;;;;;;6.60;1.08;;;;;;;6.94;100.00;100139.91;5250768;28;20032;-80
2021/10/22 03:09:41;;;;;;;5.07;1.00;;;;;;;6.93;100.00;100139.03;5251658;28;20024;-80
2021/10/22 03:12:11;;;;;;;5.65;1.10;;;;;;;6.87;100.00;100141.81;5245794;28;20092;-78
2021/10/22 03:14:41;;;;;;;4.30;1.10;;;;;;;7.06;100.00;100139.53;5243625;28;20021;-77
2021/10/22 03:17:12;;;;;;;5.18;1.40;;;;;;;7.02;100.00;100138.78;5240764;28;20507;-76
2021/10/22 03:19:42;;;;;;;5.20;1.27;;;;;;;6.94;100.00;100127.75;5244047;28;20036;-77
2021/10/22 03:22:13;;;;;;;5.45;1.30;;;;;;;6.76;100.00;100133.44;5236837;28;20079;-77
2021/10/22 03:24:44;;;;;;;6.47;1.40;;;;;;;6.76;100.00;100135.22;5239872;28;20031;-77
2021/10/22 03:27:15;;;;;;;5.28;1.48;;;;;;;6.80;100.00;100137.66;5240202;28;20028;-77
2021/10/22 03:29:47;;;;;;;10.85;1.60;;;;;;;6.87;100.00;100140.94;5243957;28;20024;-77
2021/10/22 03:32:17;;;;;;;10.02;1.70;;;;;;;6.90;100.00;100139.13;5236183;28;20033;-77
2021/10/22 03:34:48;;;;;;;9.15;1.58;;;;;;;6.72;100.00;100131.84;5240245;28;20044;-77
2021/10/22 03:37:18;;;;;;;6.88;1.40;;;;;;;6.74;100.00;100139.59;5243592;28;20032;-77
2021/10/22 03:39:48;;;;;;;9.77;1.60;;;;;;;6.73;100.00;100138.72;5245077;28;20032;-78
2021/10/22 03:42:19;;;;;;;10.98;1.92;;;;;;;6.83;100.00;100134.16;5240771;28;20021;-76
2021/10/22 03:44:49;;;;;;;5.07;1.38;;;;;;;6.83;100.00;100132.41;5245120;28;20059;-77
2021/10/22 03:47:19;;;;;;;13.05;1.83;;;;;;;6.85;100.00;100125.44;5241239;28;20558;-77
2021/10/22 03:49:50;;;;;;;8.43;1.33;;;;;;;6.87;100.00;100121.03;5244692;28;20114;-77
2021/10/22 03:52:20;;;;;;;6.95;1.42;;;;;;;6.97;100.00;100132.03;5235088;28;20039;-77
2021/10/22 03:54:51;;;;;;;7.93;1.40;;;;;;;6.84;100.00;100109.88;5238988;28;20115;-76
2021/10/22 03:57:21;;;;;;;6.75;1.70;;;;;;;6.85;100.00;100116.78;5241039;28;20025;-78
2021/10/22 03:59:51;;;;;;;8.93;1.60;;;;;;;6.70;100.00;100118.06;5245599;28;20048;-76
2021/10/22 04:02:21;;;;;;;9.02;1.33;;;;;;;6.78;100.00;100108.28;5235140;28;20100;-77
2021/10/22 04:04:52;;;;;;;6.65;1.55;;;;;;;6.90;100.00;100110.56;5235827;28;20032;-77
2021/10/22 04:07:23;;;;;;;5.93;1.90;;;;;;;6.89;100.00;100108.00;5242975;28;20032;-76
2021/10/22 04:09:53;;;;;;;7.10;1.73;;;;;;;6.87;100.00;100114.97;5240756;28;20113;-78
2021/10/22 04:12:23;;;;;;;8.52;1.88;;;;;;;6.80;100.00;100114.28;5243500;28;20032;-78
2021/10/22 04:14:54;;;;;;;6.60;1.52;;;;;;;6.84;100.00;100110.75;5239946;28;20102;-77
2021/10/22 04:17:24;;;;;;;5.90;1.75;;;;;;;6.73;100.00;100101.56;5242304;28;20025;-76
2021/10/22 04:19:55;;;;;;;6.80;1.80;;;;;;;6.85;100.00;100102.06;5241346;28;20028;-76
2021/10/22 04:22:25;;;;;;;9.45;1.65;;;;;;;6.89;100.00;100108.84;5235997;28;20060;-79
2021/10/22 04:24:55;;;;;;;7.13;1.70;;;;;;;6.88;100.00;100106.28;5239087;28;20503;-79
2021/10/22 04:27:26;;;;;;;7.82;1.73;;;;;;;6.92;100.00;100102.72;5241154;28;20032;-78
2021/10/22 04:29:56;;;;;;;7.30;2.20;;;;;;;6.88;100.00;100103.69;5242901;28;20082;-79
2021/10/22 04:32:26;;;;;;;7.90;2.13;;;;;;;6.93;100.00;100110.47;5238403;28;20029;-77
2021/10/22 04:34:57;;;;;;;9.32;2.35;;;;;;;7.01;100.00;100113.72;5236425;28;20056;-77
2021/10/22 04:37:33;;;;;;;11.10;2.28;;;;;;;6.93;100.00;100109.63;5241506;28;20044;-76
2021/10/22 04:42:52;;;;;;;12.95;2.47;;;;;;;7.01;100.00;100110.25;5240548;28;20039;-77
2021/10/22 04:45:23;;;;;;;14.07;2.85;;;;;;;6.99;100.00;100106.84;5243250;28;20095;-78
2021/10/22 04:47:53;;;;;;;12.00;2.50;;;;;;;7.05;100.00;100109.25;5239618;28;20051;-77
2021/10/22 04:50:24;;;;;;;9.00;2.10;;;;;;;7.05;100.00;100104.06;5241082;28;20036;-77
2021/10/22 04:52:54;;;;;;;7.32;2.17;;;;;;;7.11;100.00;100103.91;5245614;28;20092;-76
2021/10/22 04:55:28;;;;;;;10.50;2.30;;;;;;;7.09;100.00;100098.75;5238236;28;20056;-77
2021/10/22 04:57:58;;;;;;;6.95;2.15;;;;;;;7.16;99.57;100104.63;5239232;28;20497;-78
2021/10/22 05:00:28;;;;;;;11.90;2.60;;;;;;;7.14;100.00;100103.81;5242722;28;20029;-78
2021/10/22 05:02:58;;;;;;;11.73;2.45;;;;;;;7.09;100.00;100103.94;5235877;28;20037;-78
2021/10/22 05:05:29;;;;;;;12.75;2.45;;;;;;;7.20;99.57;100101.03;5235847;28;20215;-76
2021/10/22 05:07:59;;;;;;;6.60;2.15;;;;;;;7.17;100.00;100093.31;5242404;28;20024;-78
2021/10/22 05:10:30;;;;;;;13.75;2.22;;;;;;;7.15;99.12;100100.31;5241229;28;20191;-76
2021/10/22 05:13:00;;;;;;;13.27;2.00;;;;;;;7.15;99.61;100111.56;5237160;28;20032;-77
2021/10/22 05:15:31;;;;;;;8.20;2.20;;;;;;;7.26;98.73;100106.88;5237892;28;20025;-76
2021/10/22 05:18:01;;;;;;;11.00;2.60;;;;;;;7.21;99.24;100113.13;5237971;28;20061;-76
2021/10/22 05:20:32;;;;;;;9.20;2.00;;;;;;;7.25;99.41;100102.59;5239663;28;20033;-77
2021/10/22 05:23:02;;;;;;;6.50;1.83;;;;;;;7.27;98.96;100110.34;5234268;28;20425;-77
2021/10/22 05:25:32;;;;;;;11.23;2.00;;;;;;;7.31;99.08;100105.00;5240984;28;20041;-77
2021/10/22 05:28:03;;;;;;;9.05;2.38;;;;;;;7.18;98.54;100101.09;5241361;28;20029;-77
2021/10/22 05:30:33;;;;;;;11.63;2.22;;;;;;;7.22;98.92;100100.09;5242756;28;20183;-77
2021/10/22 05:33:04;;;;;;;7.38;2.30;;;;;;;7.22;98.27;100093.13;5236038;28;20239;-77
2021/10/22 05:35:34;;;;;;;10.00;2.35;;;;;;;7.14;99.63;100091.66;5235943;28;20104;-78
2021/10/22 05:38:05;;;;;;;11.27;2.17;;;;;;;7.11;99.54;100093.50;5240788;28;20037;-77
2021/10/22 05:40:35;;;;;;;10.32;2.28;;;;;;;7.08;100.00;100083.22;5238722;28;20263;-78
2021/10/22 05:43:06;;;;;;;9.23;2.20;;;;;;;7.05;100.00;100091.94;5240704;28;20490;-77
2021/10/22 05:45:36;;;;;;;10.40;2.35;;;;;;;7.12;100.00;100090.84;5238664;28;20060;-76
2021/10/22 05:48:06;;;;;;;12.73;2.40;;;;;;;7.07;99.59;100097.09;5241141;28;20035;-77
2021/10/22 05:50:39;;;;;;;7.35;1.52;;;;;;;7.24;99.50;100092.25;5239043;28;20024;-77
2021/10/22 05:53:09;;;;;;;7.88;1.45;;;;;;;7.04;100.00;100089.38;5236761;28;20032;-77
2021/10/22 05:55:39;;;;;;;7.95;1.58;;;;;;;7.09;100.00;100082.31;5239031;28;20051;-77
2021/10/22 05:58:10;;;;;;;6.68;1.60;;;;;;;7.21;100.00;100084.53;5241970;28;20104;-76
2021/10/22 06:00:42;;;;;;;6.70;1.70;;;;;;;7.14;100.00;100083.03;5241764;28;20475;-77
2021/10/22 06:03:13;;;;;;;5.60;1.63;;;;;;;7.01;100.00;100071.28;5234844;28;20028;-78
2021/10/22 06:05:44;;;;;;;9.38;1.73;;;;;;;6.94;100.00;100070.59;5238232;28;20031;-76
2021/10/22 06:08:14;;;;;;;8.55;2.00;;;;;;;7.01;100.00;100053.09;5240809;28;20037;-77
2021/10/22 06:10:45;;;;;;;7.75;1.98;;;;;;;6.96;100.00;100058.44;5244474;28;20035;-77
2021/10/22 06:13:15;;;;;;;8.25;2.08;;;;;;;6.98;100.00;100055.78;5238889;28;20654;-77
2021/10/22 06:15:46;;;;;;;7.90;2.47;;;;;;;6.91;100.00;100049.91;5227244;28;20021;-78
2021/10/22 06:18:18;;;;;;;9.48;1.90;;;;;;;6.90;100.00;100040.44;5231694;28;20475;-77
2021/10/22 06:26:08;;;;;;;8.77;2.00;;;;;;;6.94;100.00;100028.22;5248225;28;20063;-79
2021/10/22 06:28:39;;;;;;;7.68;1.67;;;;;;;6.97;100.00;100028.97;5250400;28;20021;-80
2021/10/22 06:31:12;;;;;;;10.35;2.22;;;;;;;7.07;100.00;100034.75;5250581;28;20053;-80
2021/10/22 06:33:43;;;;;;;10.48;2.33;;;;;;;7.20;99.05;100033.47;5245342;28;20020;-80
2021/10/22 06:36:13;;;;;;;12.63;2.25;;;;;;;7.35;96.88;100032.09;5248572;28;20067;-79
2021/10/22 06:38:44;;;;;;;12.60;2.30;;;;;;;7.44;96.70;100029.22;5249218;28;20029;-79
2021/10/22 06:41:15;;;;;;;6.28;1.80;;;;;;;7.48;95.93;100028.22;5254031;28;20025;-79
2021/10/22 06:43:46;;;;;;;7.38;1.88;;;;;;;7.52;96.42;100035.00;5248557;28;20509;-79
2021/10/22 06:46:16;;;;;;;10.95;2.03;;;;;;;7.60;95.59;100035.63;5250261;28;20111;-80
2021/10/22 06:48:47;;;;;;;9.55;2.20;;;;;;;7.59;95.23;100026.13;5250843;28;20043;-79
2021/10/22 06:51:17;;;;;;;5.38;1.40;;;;;;;7.70;95.28;100017.97;5247256;28;20017;-80
2021/10/22 06:53:48;;;;;;;6.15;1.50;;;;;;;7.78;95.05;100026.38;5250658;28;20032;-79
2021/10/22 06:56:18;;;;;;;6.10;1.95;;;;;;;7.84;93.47;100014.00;5249302;28;20051;-80
2021/10/22 06:58:49;;;;;;;7.82;1.77;;;;;;;7.92;92.64;100014.63;5247920;28;20188;-78
2021/10/22 07:01:19;;;;;;;6.95;1.55;;;;;;;8.04;92.48;100023.75;5250796;28;20047;-78
2021/10/22 07:03:49;;;;;;;9.52;2.13;;;;;;;8.31;91.27;100015.00;5255233;28;20106;-80
2021/10/22 07:09:08;;;;;;;6.88;1.70;;;;;;;8.32;90.52;100020.16;5248115;28;20051;-79
2021/10/22 07:11:39;;;;;;;9.77;1.92;;;;;;;8.25;90.74;100013.47;5249941;28;20048;-79
2021/10/22 07:14:09;;;;;;;6.90;2.10;;;;;;;8.35;91.33;100009.63;5248186;28;20029;-79
2021/10/22 07:16:41;;;;;;;7.07;2.00;;;;;;;8.37;90.91;100018.25;5250747;28;20020;-79
2021/10/22 07:19:11;;;;;;;8.02;1.90;;;;;;;8.49;90.18;100017.81;5246559;28;20119;-79
2021/10/22 07:21:47;;;;;;;8.98;1.60;;;;;;;8.55;89.03;100011.53;5242944;28;20506;-79
2021/10/22 07:24:22;;;;;;;8.05;1.92;;;;;;;8.60;89.01;100012.22;5238023;28;20107;-77
2021/10/22 07:26:53;;;;;;;4.68;1.40;;;;;;;8.72;88.18;100009.16;5241912;28;20021;-76
2021/10/22 07:29:23;;;;;;;6.93;1.67;;;;;;;8.87;87.90;100003.38;5245446;28;20020;-77
2021/10/22 07:31:54;;;;;;;8.13;1.20;;;;;;;8.94;86.90;100010.06;5241355;28;20281;-76
2021/10/22 07:34:26;;;;;;;6.97;1.45;;;;;;;9.13;86.80;100008.44;5233807;28;20025;-77
2021/10/22 07:36:56;;;;;;;6.60;1.70;;;;;;;9.08;87.00;100018.19;5243371;28;20051;-77
2021/10/22 07:39:27;;;;;;;4.20;1.10;;;;;;;9.14;86.68;100021.41;5240778;28;20033;-78
2021/10/22 07:41:58;;;;;;;6.40;1.38;;;;;;;9.16;86.60;100017.00;5240284;28;20024;-77
2021/10/22 07:44:29;;;;;;;7.93;1.35;;;;;;;9.17;86.05;100016.09;5235997;28;20024;-77
2021/10/22 07:47:00;;;;;;;6.55;1.08;;;;;;;9.16;86.32;100015.22;5237300;28;20025;-77
2021/10/22 07:49:31;;;;;;;5.80;1.02;;;;;;;9.08;87.32;100005.16;5236586;28;20131;-77
2021/10/22 07:52:02;;;;;;;5.13;1.25;;;;;;;9.24;86.41;100020.13;5231212;28;20108;-77
2021/10/22 07:54:32;;;;;;;8.77;1.35;;;;;;;9.25;85.51;100012.28;5236053;28;20112;-77
2021/10/22 07:57:03;;;;;;;4.05;0.77;;;;;;;9.20;86.82;100015.97;5239294;28;20034;-77
2021/10/22 07:59:33;;;;;;;5.15;1.23;;;;;;;9.17;87.70;100023.91;5239499;28;20120;-77
2021/10/22 08:02:08;;;;;;;6.05;1.10;;;;;;;9.08;86.76;100012.97;5238105;28;20020;-76
2021/10/22 08:04:43;;;;;;;4.93;0.95;;;;;;;9.18;87.09;100018.59;5228681;28;20255;-76
2021/10/22 08:07:16;;;;;;;5.40;0.95;;;;;;;9.20;86.34;100013.34;5233608;28;20480;-77
2021/10/22 08:09:48;;;;;;;6.78;0.90;;;;;;;9.12;87.24;100019.78;5238898;28;20046;-77
2021/10/22 08:12:19;;;;;;;9.63;1.30;;;;;;;9.05;87.61;100029.56;5234704;28;20032;-76
2021/10/22 08:14:49;;;;;;;6.80;1.00;;;;;;;9.13;87.76;100019.72;5235512;28;20033;-77
2021/10/22 08:17:20;;;;;;;8.57;1.30;;;;;;;9.23;86.50;100018.44;5236557;28;20082;-76
2021/10/22 08:20:09;;;;;;;7.72;1.25;;;;;;;9.27;87.34;100013.06;5239672;28;20021;-77
2021/10/22 08:22:40;;;;;;;4.63;1.15;;;;;;;9.22;87.16;100003.72;5238104;28;20036;-77
2021/10/22 08:25:12;;;;;;;5.10;0.95;;;;;;;9.30;86.77;100004.28;5240821;28;20016;-79
2021/10/22 08:27:48;;;;;;;3.80;0.80;;;;;;;9.42;86.77;99991.59;5238237;28;20028;-79
2021/10/22 08:30:22;;;;;;;3.63;0.90;;;;;;;9.71;86.11;99995.63;5240690;28;20027;-77
2021/10/22 08:32:55;;;;;;;4.78;1.02;;;;;;;9.85;84.66;99988.06;5231532;28;20057;-78
2021/10/22 08:35:28;;;;;;;6.82;1.00;;;;;;;10.24;83.63;99994.22;5234416;28;20040;-78
2021/10/22 08:37:59;;;;;;;4.70;0.88;;;;;;;10.74;81.57;100004.16;5235583;28;20070;-77
2021/10/22 08:40:29;;;;;;;4.30;0.88;;;;;;;11.49;78.71;99988.31;5235568;28;20123;-77
2021/10/22 08:42:59;;;;;;;3.22;0.63;;;;;;;11.31;77.77;99989.19;5235136;28;20140;-78
2021/10/22 08:45:32;;;;;;;4.00;1.00;;;;;;;10.88;79.19;99987.81;5235651;28;20032;-77
2021/10/22 08:48:04;;;;;;;6.72;1.20;;;;;;;10.69;80.96;99990.41;5232688;28;20104;-78
2021/10/22 08:50:35;;;;;;;4.05;0.93;;;;;;;10.53;81.64;99999.03;5236163;28;20123;-77
2021/10/22 08:53:26;;;;;;;4.05;0.88;;;;;;;10.33;82.89;99988.63;5252088;23;20048;-80
2021/10/22 08:56:09;;;;;;;3.78;1.00;;;;;;;10.71;83.04;99990.34;5222114;28;20120;-82
2021/10/22 08:59:01;;;;;;;7.63;1.30;;;;;;;10.64;82.11;99999.38;5227846;28;20112;-82
2021/10/22 09:01:32;;;;;;;4.90;1.30;;;;;;;10.69;82.58;99993.03;5222806;28;20113;-83
2021/10/22 09:04:03;;;;;;;4.70;0.82;;;;;;;10.62;81.48;99993.38;5221739;28;20096;-81
2021/10/22 09:06:49;;;;;;;3.55;0.90;;;;;;;10.62;82.37;99959.41;5215938;28;20028;-82
2021/10/22 09:09:20;;;;;;;4.28;0.90;;;;;;;10.78;82.03;99983.94;5216351;28;20465;-80
2021/10/22 09:11:50;;;;;;;7.50;1.33;;;;;;;10.84;81.28;99991.50;5215548;28;20308;-82
2021/10/22 09:14:21;;;;;;;8.68;1.25;;;;;;;10.83;81.76;99995.03;5217929;28;20025;-82
2021/10/22 09:16:53;;;;;;;6.32;1.30;;;;;;;11.11;81.00;99984.06;5217211;28;20572;-81
2021/10/22 09:19:36;;;;;;;6.07;1.00;;;;;;;11.17;80.68;99989.00;5212234;28;20133;-80
2021/10/22 09:22:22;;;;;;;7.20;1.20;;;;;;;11.20;80.38;99986.25;5212998;28;20025;-80
2021/10/22 09:24:55;;;;;;;4.80;1.15;;;;;;;11.31;80.32;99991.78;5222184;28;20041;-82
2021/10/22 09:27:36;;;;;;;3.35;0.88;;;;;;;11.44;80.94;99992.91;5215148;28;20083;-81
2021/10/22 09:30:10;;;;;;;4.68;1.00;;;;;;;11.18;78.86;99997.69;5218863;28;20488;-80
2021/10/22 09:32:47;;;;;;;9.57;1.52;;;;;;;11.38;79.16;99998.44;5217306;28;20041;-82
2021/10/22 09:35:33;;;;;;;8.45;1.02;;;;;;;11.01;79.46;99992.41;5212817;28;20024;-82
2021/10/22 09:38:11;;;;;;;;;;;;;;;11.13;79.37;99992.66;5215849;28;20468;-82
2021/10/22 09:40:43;;;;;;;5.03;0.98;;;;;;;11.19;80.08;99992.41;5212566;28;19913;-81
2021/10/22 09:43:35;;;;;;;5.70;1.23;;;;;;;11.18;79.39;99993.31;5218483;28;20049;-79
2021/10/22 09:46:16;;;;;;;5.22;1.10;;;;;;;11.03;80.20;99986.19;5226316;28;20061;-80
2021/10/22 09:48:49;;;;;;;3.78;0.95;;;;;;;10.95;79.97;99991.84;5214514;28;20045;-80
2021/10/22 09:51:21;;;;;;;3.40;0.98;;;;;;;10.99;80.11;99986.41;5212219;28;20029;-81
2021/10/22 09:53:52;;;;;;;7.18;1.42;;;;;;;10.85;80.95;99980.13;5213975;28;20056;-82
2021/10/22 09:56:24;;;;;;;6.05;1.40;;;;;;;10.78;81.28;99990.00;5215158;28;20037;-81
2021/10/22 09:58:57;;;;;;;8.35;1.42;;;;;;;10.82;81.58;100004.63;5216010;28;20056;-81
2021/10/22 10:01:31;;;;;;;6.78;1.50;;;;;;;10.78;81.39;100000.47;5216722;28;20029;-81
2021/10/22 10:04:02;;;;;;;7.63;1.20;;;;;;;11.03;80.61;99986.19;5211523;28;20033;-80
2021/10/22 10:06:33;;;;;;;4.93;1.02;;;;;;;11.36;80.61;99988.97;5211057;28;20106;-83
2021/10/22 10:09:08;;;;;;;5.90;1.00;;;;;;;11.34;79.41;99989.06;5211648;28;20033;-82
2021/10/22 10:11:42;;;;;;;5.13;1.13;;;;;;;11.11;79.14;99991.06;5211268;28;20094;-82
2021/10/22 10:14:14;;;;;;;5.65;1.35;;;;;;;11.02;79.35;99994.97;5210864;28;20048;-81
2021/10/22 10:16:47;;;;;;;5.97;1.25;;;;;;;11.00;80.19;100000.34;5207943;28;20025;-81
2021/10/22 10:19:23;;;;;;;3.17;0.90;;;;;;;10.96;79.67;99986.56;5221309;28;20021;-81
2021/10/22 10:22:06;;;;;;;5.60;1.00;;;;;;;11.13;80.32;99994.44;5215006;28;20029;-81
2021/10/22 10:24:40;;;;;;;5.55;1.30;;;;;;;11.27;79.94;99992.03;5213342;28;20029;-82
2021/10/22 10:27:17;;;;;;;2.97;1.17;;;;;;;11.36;79.46;99995.06;5218247;28;20024;-82
2021/10/22 10:29:55;;;;;;;3.28;0.98;;;;;;;11.33;79.57;99982.13;5213005;28;20077;-82
2021/10/22 10:32:28;;;;;;;6.75;0.90;;;;;;;11.20;79.24;99980.16;5219329;28;20794;-81
2021/10/22 10:35:00;;;;;;;6.63;1.35;;;;;;;11.23;79.69;99978.25;5220496;28;20095;-81
2021/10/22 10:37:35;;;;;;;6.78;1.60;;;;;;;11.30;79.45;99989.28;5218189;28;20052;-81
2021/10/22 10:40:22;;;;;;;5.80;1.00;;;;;;;11.38;79.23;99995.84;5214374;28;20073;-83
2021/10/22 10:42:56;;;;;;;5.32;1.17;;;;;;;11.39;79.64;99987.06;5217531;28;20025;-82
2021/10/22 10:45:27;;;;;;;4.47;0.93;;;;;;;11.51;79.02;99978.63;5210346;28;20039;-80
2021/10/22 10:48:01;;;;;;;6.72;1.48;;;;;;;11.24;79.33;99982.56;5212128;28;20029;-82
2021/10/22 10:50:40;;;;;;;5.68;1.00;;;;;;;11.22;79.45;99981.78;5216789;28;20029;-81
2021/10/22 10:53:15;;;;;;;5.85;1.00;;;;;;;11.34;79.91;99980.34;5213812;28;20515;-80
2021/10/22 10:55:51;;;;;;;1.83;0.88;;;;;;;11.31;79.86;99986.56;5215363;28;20021;-82
2021/10/22 10:58:21;;;;;;;;;;;;;;;11.40;79.53;99980.91;5219138;28;20072;-82
2021/10/22 11:00:57;;;;;;;7.38;1.20;;;;;;;11.42;78.86;99994.75;5213072;28;20215;-81
2021/10/22 11:03:45;;;;;;;5.32;1.20;;;;;;;11.27;79.54;99989.44;5211088;28;20518;-83
2021/10/22 11:06:27;;;;;;;4.75;1.30;;;;;;;11.13;80.67;99997.06;5207307;28;20029;-82
2021/10/22 11:08:58;;;;;;;4.82;1.00;;;;;;;11.08;81.87;99999.06;5215282;28;20030;-82
2021/10/22 11:11:35;;;;;;;5.40;1.58;;;;;;;11.19;81.66;99979.31;5215416;28;20121;-80
2021/10/22 11:14:06;;;;;;;4.25;1.55;;;;;;;11.49;81.56;99984.84;5216843;28;20017;-82
2021/10/22 11:16:51;;;;;;;3.70;1.30;;;;;;;11.79;80.24;99978.97;5221818;28;20035;-80
2021/10/22 11:19:26;;;;;;;7.97;1.52;;;;;;;11.71;79.46;99973.28;5215783;28;20477;-80
2021/10/22 11:22:01;;;;;;;8.27;1.20;;;;;;;11.58;79.48;99980.03;5218530;28;20037;-79
2021/10/22 11:24:33;;;;;;;;;;;;;;;11.61;79.04;99974.66;5223112;28;20056;-83
2021/10/22 11:27:17;;;;;;;5.22;1.10;;;;;;;11.42;79.65;99994.75;5234780;28;19927;-80
2021/10/22 11:29:56;;;;;;;6.85;1.35;;;;;;;11.31;80.91;99983.13;5216035;28;20022;-81
2021/10/22 11:32:27;;;;;;;5.15;1.17;;;;;;;11.12;82.08;99980.53;5217614;28;20035;-81
2021/10/22 11:35:01;;;;;;;4.95;1.27;;;;;;;11.07;82.48;99979.06;5219354;28;20521;-81
2021/10/22 11:37:37;;;;;;;4.00;1.10;;;;;;;10.89;82.47;99976.44;5219188;28;20025;-80
2021/10/22 11:40:12;;;;;;;4.72;1.13;;;;;;;10.82;83.41;99986.34;5216252;28;20028;-80
2021/10/22 11:42:42;;;;;;;3.13;1.13;;;;;;;10.81;83.23;99978.56;5217035;28;20048;-81
2021/10/22 11:45:18;;;;;;;5.10;1.30;;;;;;;10.86;84.47;99976.59;5220299;28;20472;-82
2021/10/22 11:47:52;;;;;;;6.15;1.30;;;;;;;10.80;84.93;99982.09;5224713;28;20480;-80
2021/10/22 11:50:34;;;;;;;3.97;1.13;;;;;;;10.73;85.57;99992.00;5236742;28;20080;-81
2021/10/22 11:53:15;;;;;;;4.65;0.90;;;;;;;10.69;85.96;99976.53;5218664;28;20028;-80
2021/10/22 11:55:53;;;;;;;4.30;0.93;;;;;;;10.64;86.46;99984.56;5225964;28;20098;-81
2021/10/22 11:58:25;;;;;;;4.78;1.15;;;;;;;10.52;88.10;99990.31;5222445;28;20043;-80
2021/10/22 12:00:56;;;;;;;6.97;1.20;;;;;;;10.47;88.12;99983.59;5220644;28;20048;-81
2021/10/22 12:03:37;;;;;;;4.18;0.98;;;;;;;10.52;88.40;99997.34;5216126;28;20025;-80